Time;durP1;ratioP1;P1;durP2;ratioP2;P2;SDS_P1;SDS_P2;PMS_P1;PMS_P2;Temp;Humidity;BMP_temperature;BMP_pressure;BME280_temperature;BME280_humidity;BME280_pressure;Samples;Min_cycle;Max_cycle;Signal;HPM_P1;HPM_P2
2023/09/20 00:01:53;;;;;;;2.27;1.23;;;17.00;99.90;;;;;;5006933;28;20420;-71
2023/09/20 00:04:19;;;;;;;2.53;1.50;;;17.00;99.90;;;;;;5016920;28;20450;-71
2023/09/20 00:06:46;;;;;;;3.37;2.10;;;16.90;99.90;;;;;;5016927;28;20206;-71
2023/09/20 00:09:13;;;;;;;2.60;1.60;;;16.90;99.90;;;;;;5019910;28;20442;-71
2023/09/20 00:11:40;;;;;;;4.23;2.10;;;16.90;99.90;;;;;;5003354;28;20458;-72
2023/09/20 00:14:06;;;;;;;4.37;1.87;;;16.90;99.90;;;;;;5006887;28;20441;-70
2023/09/20 00:16:31;;;;;;;6.30;1.60;;;16.80;99.90;;;;;;5023019;28;20463;-70
2023/09/20 00:18:57;;;;;;;3.13;1.90;;;16.80;99.90;;;;;;5019007;28;20422;-70
2023/09/20 00:21:23;;;;;;;3.90;1.90;;;16.70;99.90;;;;;;5020425;28;20198;-71
2023/09/20 00:23:49;;;;;;;2.40;1.50;;;16.70;99.90;;;;;;5020625;28;20240;-72
2023/09/20 00:26:18;;;;;;;3.77;1.60;;;16.60;99.90;;;;;;5004774;28;20426;-70
2023/09/20 00:28:49;;;;;;;2.53;1.40;;;16.60;99.90;;;;;;5018306;28;20961;-70
2023/09/20 00:31:15;;;;;;;7.23;1.90;;;16.60;99.90;;;;;;5021837;28;20718;-71
2023/09/20 00:33:44;;;;;;;2.60;1.77;;;16.50;99.90;;;;;;5022141;28;20510;-70
2023/09/20 00:36:18;;;;;;;1.93;1.33;;;16.50;99.90;;;;;;5004795;28;20461;-70
2023/09/20 00:38:45;;;;;;;4.53;1.70;;;16.50;99.90;;;;;;5002859;28;20486;-70
2023/09/20 00:41:11;;;;;;;2.60;1.37;;;16.40;99.90;;;;;;5016128;28;20459;-70
2023/09/20 00:43:37;;;;;;;2.90;1.70;;;16.40;99.90;;;;;;5017179;28;20447;-70
2023/09/20 00:46:04;;;;;;;3.53;1.47;;;16.40;99.90;;;;;;5025732;28;20480;-71
2023/09/20 00:48:31;;;;;;;2.20;1.40;;;16.30;99.90;;;;;;4995334;28;20637;-71
2023/09/20 00:50:57;;;;;;;2.77;1.60;;;16.30;99.90;;;;;;5006368;28;20464;-70
2023/09/20 00:53:24;;;;;;;4.00;1.83;;;16.20;99.90;;;;;;5003884;28;20274;-70
2023/09/20 00:55:50;;;;;;;2.53;1.80;;;16.20;99.90;;;;;;5002528;28;20654;-70
2023/09/20 00:58:18;;;;;;;4.13;1.63;;;16.20;99.90;;;;;;5001123;28;20450;-71
2023/09/20 01:00:45;;;;;;;1.70;1.20;;;16.20;99.90;;;;;;5023853;28;20482;-71
2023/09/20 01:03:16;;;;;;;3.07;1.83;;;16.20;99.90;;;;;;5011457;28;20473;-70
2023/09/20 01:05:42;;;;;;;3.07;1.70;;;16.30;99.90;;;;;;5010646;28;20434;-71
2023/09/20 01:08:09;;;;;;;3.40;1.70;;;16.40;99.90;;;;;;5016993;28;20480;-70
2023/09/20 01:10:37;;;;;;;1.93;1.33;;;16.40;99.90;;;;;;5005777;28;20403;-70
2023/09/20 01:13:04;;;;;;;1.63;1.27;;;16.40;99.90;;;;;;5015527;28;20448;-71
2023/09/20 01:15:32;;;;;;;2.30;1.70;;;16.50;99.90;;;;;;5023970;28;20415;-69
2023/09/20 01:17:58;;;;;;;3.00;1.13;;;16.40;99.90;;;;;;5022781;28;20419;-70
2023/09/20 01:20:29;;;;;;;2.13;1.57;;;16.40;99.90;;;;;;5022036;28;20408;-70
2023/09/20 01:22:56;;;;;;;2.57;1.00;;;16.30;99.90;;;;;;5017999;28;20434;-71
2023/09/20 01:25:34;;;;;;;1.90;1.30;;;16.30;99.90;;;;;;5001564;28;20431;-71
2023/09/20 01:28:04;;;;;;;4.30;1.47;;;16.20;99.90;;;;;;5003991;28;20745;-70
2023/09/20 01:30:33;;;;;;;2.80;1.40;;;16.10;99.90;;;;;;5014420;28;20422;-69
2023/09/20 01:33:03;;;;;;;2.60;1.20;;;16.10;99.90;;;;;;5004012;28;20429;-72
2023/09/20 01:35:30;;;;;;;2.57;1.67;;;16.10;99.90;;;;;;4987652;28;20419;-69
2023/09/20 01:37:56;;;;;;;3.37;1.50;;;16.00;99.90;;;;;;4984336;28;20420;-70
2023/09/20 01:40:25;;;;;;;2.03;1.43;;;16.00;99.90;;;;;;4998070;28;20504;-69
2023/09/20 01:42:57;;;;;;;4.33;1.20;;;16.00;99.90;;;;;;5012192;28;20882;-71
2023/09/20 01:45:23;;;;;;;2.07;1.40;;;16.00;99.90;;;;;;4984580;28;20506;-70
2023/09/20 01:47:51;;;;;;;3.50;1.20;;;16.00;99.90;;;;;;5001134;28;20462;-70
2023/09/20 01:50:21;;;;;;;1.60;1.23;;;16.00;99.90;;;;;;5018937;28;20554;-71
2023/09/20 01:52:51;;;;;;;3.43;1.70;;;16.00;99.90;;;;;;5006037;28;20465;-70
2023/09/20 01:55:20;;;;;;;3.47;1.87;;;16.00;99.90;;;;;;5026053;28;20735;-70
2023/09/20 01:57:47;;;;;;;2.63;1.50;;;15.90;99.90;;;;;;5025255;28;20427;-70
2023/09/20 02:00:29;;;;;;;3.97;1.83;;;16.00;99.90;;;;;;5024404;28;20427;-70
2023/09/20 02:03:00;;;;;;;5.07;2.17;;;16.00;99.90;;;;;;5022352;28;20421;-70
2023/09/20 02:05:27;;;;;;;3.90;2.50;;;15.90;99.90;;;;;;5020352;28;20411;-70
2023/09/20 02:07:56;;;;;;;3.07;2.03;;;15.90;99.90;;;;;;5000119;28;20759;-70
2023/09/20 02:10:22;;;;;;;1.70;1.27;;;15.80;99.90;;;;;;5012588;28;20422;-70
2023/09/20 02:12:53;;;;;;;2.60;1.90;;;15.80;99.90;;;;;;5018574;28;20453;-71
2023/09/20 02:15:20;;;;;;;4.07;1.80;;;15.80;99.90;;;;;;5018429;28;20191;-71
2023/09/20 02:17:46;;;;;;;3.63;2.33;;;15.80;99.90;;;;;;4983724;28;20457;-71
2023/09/20 02:20:12;;;;;;;4.77;1.90;;;15.80;99.90;;;;;;4986205;28;20425;-70
2023/09/20 02:22:39;;;;;;;8.00;3.37;;;15.70;99.90;;;;;;5017043;28;20705;-71
2023/09/20 02:25:11;;;;;;;3.17;1.67;;;15.70;99.90;;;;;;5017829;28;20431;-69
2023/09/20 02:27:42;;;;;;;2.47;1.77;;;15.70;99.90;;;;;;5001566;28;20494;-71
2023/09/20 02:30:11;;;;;;;2.03;1.50;;;15.60;99.90;;;;;;5020208;28;20418;-70
2023/09/20 02:32:38;;;;;;;2.73;2.10;;;15.60;99.90;;;;;;5003216;28;20684;-71
2023/09/20 02:35:04;;;;;;;4.10;1.80;;;15.50;99.90;;;;;;5001134;28;20499;-71
2023/09/20 02:37:44;;;;;;;2.93;1.80;;;15.50;99.90;;;;;;5002735;28;20176;-70
2023/09/20 02:40:18;;;;;;;4.63;1.73;;;15.50;99.90;;;;;;5001588;28;20526;-71
2023/09/20 02:42:49;;;;;;;3.20;1.87;;;15.50;99.90;;;;;;5006781;28;20413;-71
2023/09/20 02:45:15;;;;;;;2.30;1.70;;;15.40;99.90;;;;;;5019774;28;20437;-70
2023/09/20 02:47:43;;;;;;;3.17;2.07;;;15.40;99.90;;;;;;5012006;28;20456;-70
2023/09/20 02:50:12;;;;;;;8.00;2.00;;;15.40;99.90;;;;;;5001138;28;20415;-71
2023/09/20 02:52:43;;;;;;;3.80;2.10;;;15.40;99.90;;;;;;5001002;28;20817;-71
2023/09/20 02:55:12;;;;;;;3.43;1.73;;;15.40;99.90;;;;;;5002994;28;20467;-70
2023/09/20 02:57:38;;;;;;;3.33;1.80;;;15.40;99.90;;;;;;5002560;28;20797;-70
2023/09/20 03:00:15;;;;;;;2.67;1.70;;;15.40;99.90;;;;;;5021514;28;20447;-69
2023/09/20 03:02:51;;;;;;;2.43;1.60;;;15.30;99.90;;;;;;5004686;28;20430;-70
2023/09/20 03:05:19;;;;;;;2.83;2.03;;;15.30;99.90;;;;;;5022428;28;20421;-69
2023/09/20 03:07:47;;;;;;;4.10;1.70;;;15.30;99.90;;;;;;5027918;28;20470;-70
2023/09/20 03:10:14;;;;;;;2.93;1.93;;;15.30;99.90;;;;;;5026623;28;20421;-70
2023/09/20 03:12:44;;;;;;;3.30;1.50;;;15.30;99.90;;;;;;5006160;28;20481;-70
2023/09/20 03:15:19;;;;;;;2.10;1.60;;;15.30;99.90;;;;;;5005504;28;20409;-71
2023/09/20 03:17:45;;;;;;;3.73;1.77;;;15.30;99.90;;;;;;5025266;28;20421;-71
2023/09/20 03:20:12;;;;;;;2.87;1.60;;;15.30;99.90;;;;;;5023296;28;20410;-71
2023/09/20 03:22:39;;;;;;;2.53;2.07;;;15.30;99.90;;;;;;5027660;28;20421;-71
2023/09/20 03:25:14;;;;;;;4.63;1.90;;;15.30;99.90;;;;;;5028192;28;20712;-70
2023/09/20 03:27:43;;;;;;;4.47;1.60;;;15.30;99.90;;;;;;5026329;28;20237;-71
2023/09/20 03:30:13;;;;;;;5.37;2.10;;;15.20;99.90;;;;;;5027869;28;20533;-72
2023/09/20 03:32:42;;;;;;;2.60;1.60;;;15.20;99.90;;;;;;5025942;28;20422;-70
2023/09/20 03:35:10;;;;;;;4.00;2.00;;;15.20;99.90;;;;;;5025553;28;20497;-71
2023/09/20 03:37:39;;;;;;;2.00;1.57;;;15.20;99.90;;;;;;5022765;28;20447;-70
2023/09/20 03:40:10;;;;;;;3.53;1.50;;;15.20;99.90;;;;;;5011606;28;20485;-70
2023/09/20 03:42:40;;;;;;;2.37;1.60;;;15.20;99.90;;;;;;5015640;28;20418;-69
2023/09/20 03:45:10;;;;;;;4.20;2.23;;;15.20;99.90;;;;;;5017684;28;20420;-70
2023/09/20 03:47:35;;;;;;;6.80;2.40;;;15.20;99.90;;;;;;5035055;28;20501;-69
2023/09/20 03:50:04;;;;;;;3.30;1.70;;;15.20;99.90;;;;;;5019119;28;20415;-70
2023/09/20 03:52:30;;;;;;;3.50;2.03;;;15.20;99.90;;;;;;5019249;28;20191;-69
2023/09/20 03:54:57;;;;;;;3.37;1.90;;;15.20;99.90;;;;;;5034119;28;20608;-70
2023/09/20 03:57:24;;;;;;;3.63;2.10;;;15.20;99.90;;;;;;5024484;28;20187;-70
2023/09/20 03:59:52;;;;;;;4.37;2.20;;;15.20;99.90;;;;;;5024470;28;20422;-70
2023/09/20 04:02:18;;;;;;;3.10;1.80;;;15.20;99.90;;;;;;5024257;28;20409;-70
2023/09/20 04:04:47;;;;;;;3.10;2.10;;;15.20;99.90;;;;;;4995849;28;20438;-71
2023/09/20 04:07:12;;;;;;;3.00;1.93;;;15.20;99.90;;;;;;5005734;28;20473;-69
2023/09/20 04:09:40;;;;;;;5.67;2.07;;;15.20;99.90;;;;;;5026843;28;20413;-71
2023/09/20 04:12:06;;;;;;;2.83;1.80;;;15.10;99.90;;;;;;4995574;28;20466;-71
2023/09/20 04:14:32;;;;;;;2.90;1.73;;;15.10;99.90;;;;;;5016022;28;20442;-70
2023/09/20 04:16:59;;;;;;;2.30;1.57;;;15.10;99.90;;;;;;5026582;28;20186;-69
2023/09/20 04:19:24;;;;;;;1.77;1.37;;;15.10;99.90;;;;;;5025725;28;20318;-70
2023/09/20 04:21:50;;;;;;;2.80;1.60;;;15.10;99.90;;;;;;4996755;28;20469;-69
2023/09/20 04:24:17;;;;;;;3.47;2.03;;;15.10;99.90;;;;;;5005230;28;20215;-71
2023/09/20 04:26:43;;;;;;;2.30;1.60;;;15.10;99.90;;;;;;5006872;28;20430;-70
2023/09/20 04:29:10;;;;;;;3.30;1.97;;;15.10;99.90;;;;;;5025840;28;20430;-71
2023/09/20 04:31:37;;;;;;;4.97;2.07;;;15.10;99.90;;;;;;5023856;28;20475;-71
2023/09/20 04:34:05;;;;;;;2.70;1.80;;;15.10;99.90;;;;;;5019828;28;20455;-70
2023/09/20 04:36:31;;;;;;;8.27;2.77;;;15.10;99.90;;;;;;5004781;28;20690;-69
2023/09/20 04:38:56;;;;;;;4.23;2.57;;;15.10;99.90;;;;;;5018189;28;20534;-72
2023/09/20 04:41:22;;;;;;;1.73;1.50;;;15.10;99.90;;;;;;5014922;28;20551;-70
2023/09/20 04:43:48;;;;;;;2.27;1.60;;;15.10;99.90;;;;;;4987004;28;20257;-68
2023/09/20 04:46:14;;;;;;;6.30;2.07;;;15.10;99.90;;;;;;4985135;28;20194;-70
2023/09/20 04:48:40;;;;;;;4.27;1.70;;;15.00;99.90;;;;;;4990502;28;20450;-71
2023/09/20 04:51:06;;;;;;;2.40;1.97;;;15.00;99.90;;;;;;5016320;28;20230;-71
2023/09/20 04:53:33;;;;;;;2.50;2.10;;;15.00;99.90;;;;;;5005651;28;20539;-72
2023/09/20 04:55:59;;;;;;;2.67;1.83;;;15.00;99.90;;;;;;5005418;28;20419;-71
2023/09/20 04:58:27;;;;;;;5.90;2.40;;;15.00;99.90;;;;;;5017604;28;20745;-73
2023/09/20 05:00:54;;;;;;;7.40;2.73;;;15.10;99.90;;;;;;5025641;28;20442;-72
2023/09/20 05:03:20;;;;;;;7.03;2.60;;;15.10;99.90;;;;;;5024873;28;20453;-72
2023/09/20 05:05:47;;;;;;;4.43;2.27;;;15.10;99.90;;;;;;5026774;28;20187;-72
2023/09/20 05:08:18;;;;;;;3.80;1.73;;;15.20;99.90;;;;;;5030560;28;20229;-72
2023/09/20 05:10:44;;;;;;;4.67;2.17;;;15.20;99.90;;;;;;5027824;28;20445;-72
2023/09/20 05:13:10;;;;;;;4.30;2.53;;;15.20;99.90;;;;;;5004870;28;20489;-74
2023/09/20 05:15:37;;;;;;;9.73;3.00;;;15.20;99.90;;;;;;4991750;28;20818;-72
2023/09/20 05:18:05;;;;;;;4.03;2.20;;;15.20;99.90;;;;;;5008856;28;20462;-73
2023/09/20 05:20:32;;;;;;;5.17;2.30;;;15.20;99.90;;;;;;5007173;28;20471;-74
2023/09/20 05:22:59;;;;;;;4.30;2.03;;;15.20;99.90;;;;;;5025506;28;20452;-74
2023/09/20 05:25:26;;;;;;;4.23;2.50;;;15.20;99.90;;;;;;5024553;28;20442;-73
2023/09/20 05:27:54;;;;;;;6.70;2.30;;;15.30;99.90;;;;;;5006046;28;20545;-75
2023/09/20 05:30:20;;;;;;;3.90;2.30;;;15.30;99.90;;;;;;5009296;28;20419;-73
2023/09/20 05:32:50;;;;;;;3.27;2.37;;;15.20;99.90;;;;;;5004521;28;20422;-73
2023/09/20 05:35:16;;;;;;;2.97;1.97;;;15.30;99.90;;;;;;5028275;28;20415;-73
2023/09/20 05:37:41;;;;;;;4.00;2.80;;;15.30;99.90;;;;;;5024476;28;20427;-73
2023/09/20 05:40:17;;;;;;;2.73;2.20;;;15.40;99.90;;;;;;5009903;28;20192;-73
2023/09/20 05:42:46;;;;;;;3.93;2.10;;;15.40;99.90;;;;;;5027462;28;20237;-76
2023/09/20 05:45:14;;;;;;;5.53;2.00;;;15.40;99.90;;;;;;5027942;28;20421;-73
2023/09/20 05:47:43;;;;;;;4.60;2.50;;;15.50;99.90;;;;;;5009718;28;20469;-74
2023/09/20 05:50:13;;;;;;;3.83;2.70;;;15.60;99.90;;;;;;5010174;28;20414;-74
2023/09/20 05:52:43;;;;;;;2.93;2.20;;;15.70;99.90;;;;;;5025082;28;20415;-74
2023/09/20 05:55:11;;;;;;;5.27;2.30;;;15.80;99.90;;;;;;5016617;28;20463;-75
2023/09/20 05:57:38;;;;;;;8.20;2.73;;;15.80;99.90;;;;;;5004201;28;20530;-74
2023/09/20 06:00:18;;;;;;;4.00;2.07;;;15.90;99.90;;;;;;5016123;28;20715;-75
2023/09/20 06:02:45;;;;;;;10.30;2.40;;;15.90;99.90;;;;;;5010203;28;20481;-75
2023/09/20 06:05:11;;;;;;;3.30;2.40;;;16.00;99.90;;;;;;5008114;28;20473;-73
2023/09/20 06:07:38;;;;;;;3.50;2.47;;;16.00;99.90;;;;;;5021842;28;20451;-73
2023/09/20 06:10:04;;;;;;;4.30;2.20;;;16.10;99.90;;;;;;5031056;28;20424;-75
2023/09/20 06:12:31;;;;;;;3.40;2.10;;;16.10;99.90;;;;;;5112103;23;20538;-74
2023/09/20 06:20:36;;;;;;;2.60;1.97;;;16.20;99.90;;;;;;5039581;23;20534;-72
2023/09/20 06:23:06;;;;;;;4.40;2.60;;;16.30;99.90;;;;;;5009957;28;20444;-75
2023/09/20 06:25:34;;;;;;;3.50;2.73;;;16.30;99.90;;;;;;4994671;28;20886;-74
2023/09/20 06:28:03;;;;;;;4.10;2.47;;;16.40;99.90;;;;;;4999951;28;20454;-74
2023/09/20 06:30:29;;;;;;;2.87;1.93;;;16.40;99.90;;;;;;5029433;28;20411;-75
2023/09/20 06:32:55;;;;;;;3.27;2.00;;;16.50;99.90;;;;;;5031774;28;20418;-76
2023/09/20 06:35:22;;;;;;;6.73;2.30;;;16.50;99.90;;;;;;5028801;28;20194;-73
2023/09/20 06:37:51;;;;;;;4.17;2.37;;;16.60;99.90;;;;;;5030035;28;20203;-74
2023/09/20 06:40:22;;;;;;;3.70;2.17;;;16.70;99.90;;;;;;5027864;28;20441;-75
2023/09/20 06:42:50;;;;;;;4.03;1.50;;;16.70;99.90;;;;;;5009839;28;20434;-73
2023/09/20 06:45:17;;;;;;;5.60;2.80;;;16.80;99.90;;;;;;5009510;28;20495;-75
2023/09/20 06:47:43;;;;;;;5.40;2.33;;;16.90;99.90;;;;;;5009765;28;20488;-75
2023/09/20 06:50:09;;;;;;;5.07;3.03;;;16.90;99.90;;;;;;5014974;28;20440;-74
2023/09/20 06:52:34;;;;;;;3.47;2.27;;;17.00;99.90;;;;;;5013107;28;20568;-75
2023/09/20 06:55:00;;;;;;;3.40;2.20;;;17.10;99.90;;;;;;5009685;28;20224;-71
2023/09/20 06:57:26;;;;;;;3.93;2.30;;;17.10;99.90;;;;;;5013282;28;20599;-73
2023/09/20 06:59:54;;;;;;;3.80;2.23;;;17.20;99.90;;;;;;4996298;28;20263;-75
2023/09/20 07:02:20;;;;;;;2.07;1.60;;;17.30;99.90;;;;;;5002097;28;20181;-74
2023/09/20 07:04:48;;;;;;;4.13;2.13;;;17.50;99.90;;;;;;5033077;28;20472;-73
2023/09/20 07:07:14;;;;;;;4.23;2.37;;;17.60;99.90;;;;;;5015417;28;20445;-75
2023/09/20 07:09:43;;;;;;;4.23;2.40;;;17.70;99.90;;;;;;5011871;28;20424;-74
2023/09/20 07:12:08;;;;;;;3.80;2.67;;;17.80;99.90;;;;;;5025260;28;20464;-74
2023/09/20 07:14:35;;;;;;;6.47;2.40;;;17.90;99.90;;;;;;5028414;28;20430;-74
2023/09/20 07:17:00;;;;;;;2.77;1.73;;;18.00;99.90;;;;;;5010865;28;20276;-73
2023/09/20 07:19:29;;;;;;;2.90;1.97;;;18.10;99.90;;;;;;5023360;28;20469;-73
2023/09/20 07:21:59;;;;;;;3.50;2.10;;;18.20;99.90;;;;;;5018634;28;20283;-75
2023/09/20 07:24:26;;;;;;;4.00;2.50;;;18.30;99.90;;;;;;4992208;28;20480;-74
2023/09/20 07:26:54;;;;;;;3.40;1.53;;;18.40;99.90;;;;;;5008822;28;20830;-74
2023/09/20 07:29:23;;;;;;;4.03;2.30;;;18.40;99.90;;;;;;4992489;28;20407;-74
2023/09/20 07:31:48;;;;;;;5.00;1.80;;;18.50;99.90;;;;;;4985847;28;20466;-74
2023/09/20 07:34:16;;;;;;;2.50;1.43;;;18.60;99.90;;;;;;4988409;28;20446;-73
2023/09/20 07:36:43;;;;;;;3.47;1.83;;;18.60;99.90;;;;;;4992882;28;20262;-76
2023/09/20 07:39:18;;;;;;;2.23;1.87;;;18.60;99.90;;;;;;5000008;28;20436;-73
2023/09/20 07:41:50;;;;;;;10.57;2.33;;;18.70;99.90;;;;;;5015914;28;20419;-75
2023/09/20 07:44:24;;;;;;;3.80;1.80;;;18.80;99.90;;;;;;4988737;28;20436;-76
2023/09/20 07:46:53;;;;;;;2.53;1.93;;;18.90;99.90;;;;;;4987223;28;20419;-74
2023/09/20 07:49:20;;;;;;;4.77;2.47;;;18.90;99.90;;;;;;5008992;28;20462;-73
2023/09/20 07:51:54;;;;;;;4.03;1.97;;;19.00;99.90;;;;;;5007730;28;20515;-75
2023/09/20 07:54:35;;;;;;;3.10;1.80;;;19.10;99.90;;;;;;5120174;23;20473;-75
2023/09/20 07:57:00;;;;;;;3.90;2.20;;;19.20;99.90;;;;;;5013844;28;20437;-75
2023/09/20 07:59:26;;;;;;;3.33;1.77;;;19.30;99.90;;;;;;5011480;28;20191;-76
2023/09/20 08:01:53;;;;;;;3.40;2.27;;;19.30;99.90;;;;;;5024314;28;20184;-74
2023/09/20 08:04:20;;;;;;;5.47;2.50;;;19.40;99.90;;;;;;5013047;28;20454;-74
2023/09/20 08:06:46;;;;;;;5.83;2.57;;;19.50;99.90;;;;;;5010412;28;20725;-75
2023/09/20 08:09:13;;;;;;;4.63;2.43;;;19.60;99.90;;;;;;5037530;28;20464;-75
2023/09/20 08:11:40;;;;;;;2.90;2.37;;;19.70;99.90;;;;;;5005881;28;20420;-73
2023/09/20 08:14:05;;;;;;;3.37;2.23;;;19.80;99.90;;;;;;5012011;28;20515;-75
2023/09/20 08:16:42;;;;;;;3.80;1.70;;;19.80;99.90;;;;;;5020054;28;20214;-74
2023/09/20 08:21:42;;;;;;;2.23;1.50;;;20.00;99.90;;;;;;5047592;28;20864;-75
2023/09/20 09:00:24;;;;;;;2.77;1.70;;;20.90;94.60;;;;;;5011990;28;20423;-75
2023/09/20 09:02:59;;;;;;;2.10;1.33;;;21.00;94.00;;;;;;5010440;28;20431;-77
2023/09/20 09:05:27;;;;;;;4.50;2.70;;;21.00;94.20;;;;;;5011096;28;20481;-74
2023/09/20 09:07:54;;;;;;;3.10;2.10;;;21.10;94.20;;;;;;5010795;28;20442;-76
2023/09/20 09:10:20;;;;;;;6.73;2.83;;;21.30;94.00;;;;;;5010036;28;20415;-75
2023/09/20 09:12:48;;;;;;;4.43;1.97;;;21.30;93.40;;;;;;5018285;28;20442;-75
2023/09/20 09:15:16;;;;;;;7.53;3.73;;;21.60;92.80;;;;;;5015031;28;20395;-76
2023/09/20 09:17:46;;;;;;;2.67;2.17;;;21.60;91.30;;;;;;5020989;28;20414;-76
2023/09/20 09:20:22;;;;;;;3.60;1.70;;;21.70;91.50;;;;;;5015389;28;20433;-76
2023/09/20 09:22:49;;;;;;;4.60;1.60;;;21.90;90.50;;;;;;5013299;28;20438;-75
2023/09/20 09:25:24;;;;;;;3.57;1.80;;;22.00;89.90;;;;;;5014771;28;20423;-74
2023/09/20 09:27:49;;;;;;;2.53;1.43;;;22.20;88.80;;;;;;5012822;28;20542;-75
2023/09/20 09:30:17;;;;;;;2.80;1.87;;;22.40;86.20;;;;;;5018009;28;20418;-75
2023/09/20 09:32:47;;;;;;;4.80;2.23;;;22.40;85.20;;;;;;5004204;28;20228;-75
2023/09/20 09:35:16;;;;;;;4.37;1.87;;;22.50;85.00;;;;;;5013996;28;20410;-74
2023/09/20 09:37:43;;;;;;;4.80;2.10;;;22.70;83.20;;;;;;5009470;28;20426;-76
2023/09/20 09:40:11;;;;;;;3.90;1.93;;;22.80;80.30;;;;;;5010697;28;20424;-74
2023/09/20 09:42:39;;;;;;;7.17;3.20;;;22.90;79.80;;;;;;5010610;28;20451;-78
2023/09/20 09:45:06;;;;;;;12.07;3.80;;;23.00;79.40;;;;;;5012126;28;20474;-75
2023/09/20 09:47:35;;;;;;;6.13;2.53;;;23.00;78.60;;;;;;5011754;28;20446;-75
2023/09/20 09:50:04;;;;;;;4.97;2.57;;;23.10;78.30;;;;;;5067922;23;20485;-76
2023/09/20 09:52:30;;;;;;;4.90;2.13;;;23.10;76.60;;;;;;5008753;28;20401;-75
2023/09/20 09:54:56;;;;;;;4.37;2.10;;;23.10;75.70;;;;;;5051023;28;20444;-75
2023/09/20 09:57:23;;;;;;;5.33;2.33;;;23.20;75.20;;;;;;5050707;28;20432;-76
2023/09/20 09:59:50;;;;;;;4.73;2.20;;;23.30;74.50;;;;;;5283447;23;20485;-76
2023/09/20 10:02:18;;;;;;;4.30;1.90;;;23.40;73.00;;;;;;5030863;28;20229;-76
2023/09/20 10:04:47;;;;;;;11.93;4.20;;;23.30;72.90;;;;;;5029222;28;20484;-75
2023/09/20 10:07:18;;;;;;;11.27;3.50;;;23.30;72.90;;;;;;5034125;28;20473;-76
2023/09/20 10:12:28;;;;;;;21.03;7.27;;;23.40;69.90;;;;;;5233143;23;20469;-76
2023/09/20 10:15:00;;;;;;;11.37;4.90;;;23.30;69.10;;;;;;5030579;28;20505;-76
2023/09/20 10:17:30;;;;;;;4.03;2.43;;;23.30;69.00;;;;;;5033816;28;20437;-74
2023/09/20 10:19:56;;;;;;;4.83;3.00;;;23.20;68.60;;;;;;5014882;28;20442;-75
2023/09/20 10:22:27;;;;;;;13.93;3.60;;;23.30;68.20;;;;;;4996636;28;20431;-75
2023/09/20 10:25:01;;;;;;;6.10;2.63;;;23.40;68.00;;;;;;4997198;28;20214;-76
2023/09/20 10:27:30;;;;;;;3.40;1.90;;;23.60;66.50;;;;;;4996569;28;20516;-76
2023/09/20 10:30:00;;;;;;;3.47;1.80;;;23.70;65.20;;;;;;5014358;28;20421;-77
2023/09/20 10:32:34;;;;;;;1.73;1.47;;;23.80;64.80;;;;;;5025915;28;20494;-76
2023/09/20 10:35:29;;;;;;;3.17;1.80;;;24.00;64.20;;;;;;4995338;28;20431;-74
2023/09/20 10:38:09;;;;;;;9.30;2.43;;;24.10;62.80;;;;;;5016986;28;20450;-76
2023/09/20 10:40:45;;;;;;;3.00;1.93;;;24.20;62.10;;;;;;5001147;28;20422;-75
2023/09/20 10:43:15;;;;;;;3.67;2.00;;;24.30;60.30;;;;;;5010607;28;20438;-76
2023/09/20 10:45:41;;;;;;;9.57;2.80;;;24.40;59.60;;;;;;5029415;28;20507;-76
2023/09/20 10:48:14;;;;;;;13.60;3.80;;;24.50;59.10;;;;;;5017320;28;20486;-76
2023/09/20 10:51:03;;;;;;;7.20;3.20;;;24.40;59.20;;;;;;5016671;28;20441;-75
2023/09/20 10:53:52;;;;;;;5.77;2.60;;;24.30;59.60;;;;;;5019385;28;20484;-76
2023/09/20 10:56:54;;;;;;;24.80;6.00;;;24.40;59.10;;;;;;5025686;28;20845;-76
2023/09/20 10:59:22;;;;;;;8.30;3.30;;;24.40;59.20;;;;;;5013711;28;20430;-76
2023/09/20 11:01:50;;;;;;;5.47;2.10;;;24.40;58.90;;;;;;4982180;28;20414;-76
2023/09/20 11:04:17;;;;;;;3.03;2.20;;;24.30;58.40;;;;;;5002957;28;20452;-76
2023/09/20 11:06:54;;;;;;;3.97;1.83;;;24.30;58.60;;;;;;4978760;28;20430;-76
2023/09/20 11:09:20;;;;;;;8.40;3.77;;;24.20;58.40;;;;;;5009910;28;20411;-76
2023/09/20 11:11:47;;;;;;;18.20;5.33;;;24.20;58.50;;;;;;4995026;28;20463;-76
2023/09/20 11:14:13;;;;;;;15.27;6.10;;;24.30;58.30;;;;;;5013931;28;20451;-75
2023/09/20 11:16:43;;;;;;;12.73;4.00;;;24.30;58.20;;;;;;5016290;28;20426;-76
2023/09/20 11:19:13;;;;;;;4.57;2.70;;;24.40;58.30;;;;;;5004675;28;20176;-75
2023/09/20 11:21:43;;;;;;;4.63;2.67;;;24.50;58.30;;;;;;5026264;28;20501;-76
2023/09/20 11:24:30;;;;;;;3.80;2.20;;;24.50;58.20;;;;;;5016246;28;20442;-76
2023/09/20 11:26:56;;;;;;;11.33;4.77;;;24.50;58.10;;;;;;5000236;28;20506;-76
2023/09/20 11:29:23;;;;;;;6.47;3.27;;;24.60;58.30;;;;;;5020191;28;20442;-76
2023/09/20 11:31:55;;;;;;;6.90;3.23;;;24.70;58.00;;;;;;5021457;28;20409;-77
2023/09/20 11:34:22;;;;;;;5.37;3.17;;;24.80;57.70;;;;;;5490656;23;20518;-76
2023/09/20 11:39:53;;;;;;;4.60;2.87;;;24.70;57.90;;;;;;4673674;26;20267;-76
2023/09/20 11:45:28;;;;;;;7.97;3.00;;;24.90;57.60;;;;;;5000120;28;20478;-76
2023/09/20 11:48:04;;;;;;;6.97;2.20;;;25.20;57.00;;;;;;4998582;28;20472;-76
2023/09/20 11:50:33;;;;;;;3.50;2.00;;;25.30;56.10;;;;;;4997482;28;20716;-76
2023/09/20 11:53:00;;;;;;;4.30;1.90;;;25.40;55.90;;;;;;5013871;28;20445;-76
2023/09/20 11:55:26;;;;;;;3.13;1.93;;;25.30;56.00;;;;;;4954771;23;20730;-77
2023/09/20 11:57:53;;;;;;;20.23;7.27;;;25.30;56.10;;;;;;5001153;28;20423;-77
2023/09/20 12:00:25;;;;;;;5.37;2.37;;;25.20;55.70;;;;;;4987188;28;20196;-76
2023/09/20 12:02:55;;;;;;;4.10;1.80;;;25.20;55.30;;;;;;4998111;28;20408;-77
2023/09/20 12:30:11;;;;;;;6.10;2.33;;;24.60;56.70;;;;;;5157958;23;20465;-78
2023/09/20 12:38:35;;;;;;;5.73;1.77;;;25.20;54.70;;;;;;4938106;29;20434;-77
2023/09/20 12:49:21;;;;;;;2.60;1.83;;;25.20;54.60;;;;;;5440037;23;21172;-77
2023/09/20 12:54:51;;;;;;;8.10;1.97;;;25.40;54.50;;;;;;5233522;23;20481;-78
2023/09/20 12:57:19;;;;;;;6.40;2.60;;;25.30;53.70;;;;;;4939039;29;20455;-77
2023/09/20 12:59:56;;;;;;;3.73;2.00;;;25.10;53.80;;;;;;4914245;29;20427;-78
2023/09/20 13:02:27;;;;;;;3.13;1.83;;;25.10;53.90;;;;;;4919880;29;20415;-77
2023/09/20 13:04:59;;;;;;;2.60;1.90;;;25.00;53.70;;;;;;4919886;29;20451;-78
2023/09/20 13:07:34;;;;;;;3.83;2.00;;;24.90;53.90;;;;;;4905476;29;20470;-77
2023/09/20 13:10:06;;;;;;;4.70;2.73;;;24.90;53.90;;;;;;4905908;29;20470;-77
2023/09/20 13:18:44;;;;;;;4.20;2.90;;;24.70;54.00;;;;;;5645303;23;20482;-79
2023/09/20 13:21:11;;;;;;;3.80;2.00;;;24.80;54.10;;;;;;4909763;29;20443;-78
2023/09/20 13:23:42;;;;;;;4.80;2.77;;;24.70;54.20;;;;;;4941304;28;20443;-77
2023/09/20 13:26:12;;;;;;;3.13;2.53;;;24.80;54.40;;;;;;4925002;29;20494;-77
2023/09/20 13:28:43;;;;;;;2.40;2.10;;;24.60;54.60;;;;;;4937844;29;20445;-77
2023/09/20 13:31:26;;;;;;;3.73;2.30;;;24.50;55.00;;;;;;4924390;28;20434;-77
2023/09/20 13:34:04;;;;;;;4.03;2.57;;;24.40;55.40;;;;;;4924139;29;20479;-77
2023/09/20 13:36:32;;;;;;;3.70;2.13;;;24.40;55.80;;;;;;4923937;29;20414;-75
2023/09/20 13:38:57;;;;;;;3.53;2.20;;;24.40;56.00;;;;;;4921913;29;20423;-77
2023/09/20 13:41:24;;;;;;;5.23;2.60;;;24.50;56.40;;;;;;4940278;29;20419;-77
2023/09/20 13:44:00;;;;;;;3.10;1.83;;;24.50;56.70;;;;;;4920746;29;20198;-77
2023/09/20 13:46:27;;;;;;;3.07;1.73;;;24.40;57.00;;;;;;4939075;29;20427;-77
2023/09/20 13:48:54;;;;;;;2.77;2.30;;;24.30;57.00;;;;;;4921863;29;20477;-78
2023/09/20 13:51:22;;;;;;;4.80;2.20;;;24.20;56.90;;;;;;4923122;29;20427;-77
2023/09/20 13:53:50;;;;;;;5.23;2.63;;;24.20;56.90;;;;;;4938298;29;20443;-77
2023/09/20 13:56:24;;;;;;;3.63;2.90;;;24.20;56.90;;;;;;4924280;29;20442;-77
2023/09/20 13:59:07;;;;;;;4.33;2.90;;;24.30;56.70;;;;;;4907399;29;20441;-77
2023/09/20 14:01:38;;;;;;;4.13;2.60;;;24.30;55.60;;;;;;4939247;28;20423;-77
2023/09/20 14:04:06;;;;;;;3.10;2.37;;;24.40;55.30;;;;;;4938950;29;20501;-76
2023/09/20 14:06:34;;;;;;;3.93;2.87;;;24.40;55.00;;;;;;4937329;29;20426;-76
2023/09/20 14:09:02;;;;;;;3.83;2.50;;;24.40;55.10;;;;;;4937318;28;20462;-77
2023/09/20 14:11:35;;;;;;;3.10;2.80;;;24.40;55.50;;;;;;4937222;29;20439;-78
2023/09/20 14:14:02;;;;;;;4.30;3.10;;;24.40;55.80;;;;;;4921035;29;20439;-77
2023/09/20 14:16:44;;;;;;;5.27;2.70;;;24.40;55.50;;;;;;4937616;28;20433;-78
2023/09/20 14:19:20;;;;;;;5.90;2.43;;;24.40;55.50;;;;;;4922427;29;20568;-78
2023/09/20 14:21:48;;;;;;;5.83;2.60;;;24.40;55.60;;;;;;4906740;29;20470;-76
2023/09/20 14:24:19;;;;;;;3.90;2.50;;;24.40;55.70;;;;;;4937854;28;20528;-75
2023/09/20 14:26:46;;;;;;;6.27;2.70;;;24.50;56.00;;;;;;4935810;29;20494;-75
2023/09/20 14:29:13;;;;;;;4.20;2.90;;;24.60;56.10;;;;;;4919630;29;20450;-76
2023/09/20 14:31:43;;;;;;;4.63;2.30;;;24.70;56.10;;;;;;4922033;29;20455;-77
2023/09/20 14:34:10;;;;;;;2.80;2.13;;;24.80;56.30;;;;;;4937089;28;20445;-77
2023/09/20 14:36:38;;;;;;;2.17;1.80;;;24.90;56.60;;;;;;4923317;28;20425;-76